createdAt,value
2023-03-21T00:01:54.332Z,16.07
2023-03-21T00:04:03.461Z,13.33
2023-03-21T00:06:15.493Z,26.50
2023-03-21T00:08:25.782Z,12.60
2023-03-21T00:10:42.520Z,20.13
2023-03-21T00:12:58.725Z,10.70
2023-03-21T00:15:08.624Z,34.87
2023-03-21T00:17:17.858Z,26.97
2023-03-21T00:19:29.306Z,29.43
2023-03-21T00:22:06.057Z,17.70
2023-03-21T00:24:12.365Z,18.10
2023-03-21T00:26:22.678Z,54.70
2023-03-21T00:28:31.752Z,25.07
2023-03-21T00:30:42.730Z,55.23
2023-03-21T00:32:56.054Z,26.27
2023-03-21T00:35:40.753Z,30.33
2023-03-21T00:37:36.715Z,18.43
2023-03-21T00:39:48.715Z,18.73
2023-03-21T00:41:57.696Z,13.60
2023-03-21T00:44:07.253Z,6.43
2023-03-21T00:46:16.587Z,8.97
2023-03-21T00:48:26.155Z,34.13
2023-03-21T00:50:35.210Z,30.00
2023-03-21T00:52:45.300Z,35.83
2023-03-21T00:54:54.122Z,31.33
2023-03-21T00:57:03.341Z,26.83
2023-03-21T00:59:11.948Z,57.20
2023-03-21T01:01:21.149Z,35.13
2023-03-21T01:03:30.282Z,69.40
2023-03-21T01:05:57.678Z,28.00
2023-03-21T01:08:23.000Z,31.67
2023-03-21T01:10:35.604Z,41.27
2023-03-21T01:12:44.652Z,23.10
2023-03-21T01:14:53.796Z,28.57
2023-03-21T01:17:02.831Z,15.20
2023-03-21T01:19:24.964Z,19.57
2023-03-21T01:21:36.312Z,16.33
2023-03-21T01:23:46.480Z,8.00
2023-03-21T01:25:55.794Z,18.60
2023-03-21T01:28:04.555Z,36.07
2023-03-21T01:30:22.875Z,42.13
2023-03-21T01:32:32.786Z,20.13
2023-03-21T01:34:41.914Z,17.20
2023-03-21T01:36:51.304Z,24.80
2023-03-21T01:39:01.958Z,24.07
2023-03-21T01:41:19.988Z,34.67
2023-03-21T01:43:30.265Z,97.30
2023-03-21T01:45:57.249Z,18.97
2023-03-21T01:48:06.276Z,56.10
2023-03-21T01:50:15.247Z,34.53
2023-03-21T01:52:36.508Z,25.63
2023-03-21T01:54:49.385Z,37.00
2023-03-21T01:57:00.364Z,34.30
2023-03-21T01:59:11.024Z,18.30
2023-03-21T02:01:22.953Z,26.33
2023-03-21T02:03:38.857Z,37.20
2023-03-21T02:05:55.917Z,16.07
2023-03-21T02:08:04.796Z,16.70
2023-03-21T02:10:16.332Z,19.17
2023-03-21T02:12:25.054Z,14.93
2023-03-21T02:14:35.806Z,43.30
2023-03-21T02:16:50.720Z,30.07
2023-03-21T02:19:02.402Z,41.37
2023-03-21T02:21:21.771Z,33.77
2023-03-21T02:23:59.976Z,62.97
2023-03-21T02:26:42.304Z,19.90
2023-03-21T02:28:57.386Z,22.13
2023-03-21T02:31:24.449Z,46.50
2023-03-21T02:34:07.298Z,38.07
2023-03-21T02:36:36.431Z,25.87
2023-03-21T02:38:56.220Z,13.37
2023-03-21T02:41:17.993Z,55.63
2023-03-21T02:43:35.421Z,21.73
2023-03-21T02:45:49.908Z,44.00
2023-03-21T02:48:04.646Z,33.80
2023-03-21T02:50:20.330Z,44.43
2023-03-21T02:52:38.981Z,53.03
2023-03-21T02:54:51.883Z,85.70
2023-03-21T02:57:03.862Z,53.13
2023-03-21T02:59:12.764Z,70.40
2023-03-21T03:01:21.581Z,39.73
2023-03-21T03:03:34.566Z,25.57
2023-03-21T03:05:49.938Z,19.70
2023-03-21T03:08:07.641Z,20.93
2023-03-21T03:10:29.492Z,17.03
2023-03-21T03:12:49.363Z,16.37
2023-03-21T03:15:07.308Z,33.80
2023-03-21T03:17:37.516Z,17.73
2023-03-21T03:19:57.173Z,13.80
2023-03-21T03:22:10.795Z,14.10
2023-03-21T03:24:26.161Z,45.53
2023-03-21T03:26:41.547Z,16.13
2023-03-21T03:28:54.099Z,24.37
2023-03-21T03:31:09.714Z,22.53
2023-03-21T03:33:23.600Z,10.70
2023-03-21T03:35:32.442Z,68.90
2023-03-21T03:37:41.943Z,30.13
2023-03-21T03:39:53.919Z,39.40
2023-03-21T03:42:21.866Z,16.43
2023-03-21T03:44:36.707Z,7.80
2023-03-21T03:46:48.162Z,36.13
2023-03-21T03:48:59.515Z,24.33
2023-03-21T03:51:10.099Z,31.80
2023-03-21T03:53:22.168Z,27.37
2023-03-21T03:55:34.847Z,26.27
2023-03-21T03:57:45.788Z,27.73
2023-03-21T03:59:55.564Z,19.73
2023-03-21T04:02:04.531Z,17.00
2023-03-21T04:04:13.916Z,16.93
2023-03-21T04:06:22.549Z,27.23
2023-03-21T04:08:31.514Z,28.63
2023-03-21T04:10:40.784Z,25.70
2023-03-21T04:12:51.339Z,38.70
2023-03-21T04:15:08.153Z,44.90
2023-03-21T04:17:19.586Z,42.10
2023-03-21T04:19:29.101Z,15.70
2023-03-21T04:21:38.253Z,27.83
2023-03-21T04:23:47.561Z,42.97
2023-03-21T04:25:57.371Z,29.00
2023-03-21T04:28:08.378Z,51.47
2023-03-21T04:30:19.945Z,60.00
2023-03-21T04:32:28.599Z,37.43
2023-03-21T04:34:40.465Z,47.40
2023-03-21T04:36:49.632Z,77.77
2023-03-21T04:39:01.096Z,47.20
2023-03-21T04:41:09.685Z,54.23
2023-03-21T04:43:20.322Z,83.93
2023-03-21T04:45:28.957Z,31.70
2023-03-21T04:47:37.632Z,69.57
2023-03-21T04:49:48.162Z,27.97
2023-03-21T04:51:56.807Z,48.23
2023-03-21T04:54:06.041Z,59.43
2023-03-21T04:56:14.864Z,46.73
2023-03-21T04:58:24.825Z,39.17
2023-03-21T05:00:37.597Z,50.63
2023-03-21T05:02:47.242Z,61.70
2023-03-21T05:04:57.612Z,83.00
2023-03-21T05:07:07.076Z,38.17
2023-03-21T05:09:15.653Z,24.00
2023-03-21T05:11:24.261Z,29.03
2023-03-21T05:13:34.258Z,40.47
2023-03-21T05:15:43.062Z,52.77
2023-03-21T05:17:51.710Z,46.33
2023-03-21T05:20:00.151Z,25.07
2023-03-21T05:22:11.191Z,37.47
2023-03-21T05:24:22.455Z,44.27
2023-03-21T05:26:31.684Z,62.73
2023-03-21T05:28:42.173Z,39.17
2023-03-21T05:30:50.863Z,11.87
2023-03-21T05:32:59.405Z,38.60
2023-03-21T05:35:08.611Z,32.00
2023-03-21T05:37:17.303Z,21.43
2023-03-21T05:39:26.398Z,49.60
2023-03-21T05:41:34.881Z,24.03
2023-03-21T05:43:44.898Z,29.57
2023-03-21T05:45:53.249Z,24.03
2023-03-21T05:48:02.214Z,23.30
2023-03-21T05:50:13.471Z,11.87
2023-03-21T05:52:22.916Z,28.63
2023-03-21T05:54:31.609Z,12.33
2023-03-21T05:56:40.213Z,33.67
2023-03-21T05:58:50.775Z,16.37
2023-03-21T06:00:59.434Z,22.53
2023-03-21T06:03:08.055Z,24.63
2023-03-21T06:05:16.421Z,20.83
2023-03-21T06:07:25.477Z,27.73
2023-03-21T06:09:34.476Z,23.40
2023-03-21T06:11:48.874Z,33.00
2023-03-21T06:13:59.211Z,59.53
2023-03-21T06:16:08.474Z,54.23
2023-03-21T06:18:17.222Z,50.00
2023-03-21T06:20:25.582Z,46.23
2023-03-21T06:22:35.154Z,27.03
2023-03-21T06:24:44.285Z,54.70
2023-03-21T06:26:53.212Z,31.47
2023-03-21T06:29:03.721Z,41.70
2023-03-21T06:31:12.711Z,40.27
2023-03-21T06:33:21.508Z,45.93
2023-03-21T06:35:30.226Z,24.77
2023-03-21T06:37:39.634Z,17.63
2023-03-21T06:39:48.608Z,20.83
2023-03-21T06:41:57.191Z,33.27
2023-03-21T06:44:08.517Z,62.90
2023-03-21T06:46:17.368Z,52.10
2023-03-21T06:48:26.076Z,14.40
2023-03-21T06:50:34.831Z,57.70
2023-03-21T06:52:43.753Z,47.97
2023-03-21T06:54:52.678Z,32.07
2023-03-21T06:57:01.719Z,55.53
2023-03-21T06:59:11.856Z,38.37
2023-03-21T07:01:21.175Z,50.37
2023-03-21T07:03:30.321Z,31.77
2023-03-21T07:05:39.548Z,89.80
2023-03-21T07:07:48.820Z,115.80
2023-03-21T07:09:58.440Z,83.53
2023-03-21T07:12:07.082Z,67.63
2023-03-21T07:14:17.377Z,51.53
2023-03-21T07:16:26.671Z,39.93
2023-03-21T07:18:36.098Z,66.73
2023-03-21T07:20:51.247Z,76.03
2023-03-21T07:23:01.078Z,22.50
2023-03-21T07:25:10.926Z,51.83
2023-03-21T07:27:21.396Z,47.03
2023-03-21T07:29:31.808Z,20.87
2023-03-21T07:31:40.867Z,29.33
2023-03-21T07:33:49.577Z,34.47
2023-03-21T07:35:58.890Z,11.50
2023-03-21T07:38:07.900Z,23.40
2023-03-21T07:40:17.077Z,39.97
2023-03-21T07:42:25.990Z,17.80
2023-03-21T07:44:36.492Z,17.40
2023-03-21T07:46:45.756Z,16.87
2023-03-21T07:48:54.744Z,21.47
2023-03-21T07:51:03.780Z,34.07
2023-03-21T07:53:13.166Z,19.47
2023-03-21T07:55:22.276Z,23.53
2023-03-21T07:57:31.075Z,12.03
2023-03-21T07:59:41.821Z,26.07
2023-03-21T08:01:50.609Z,16.23
2023-03-21T08:03:59.246Z,18.50
2023-03-21T08:06:08.580Z,10.03
2023-03-21T08:08:17.550Z,17.17
2023-03-21T08:10:26.292Z,6.27
2023-03-21T08:12:35.043Z,10.43
2023-03-21T08:14:45.474Z,31.33
2023-03-21T08:16:54.837Z,9.70
2023-03-21T08:19:03.581Z,5.03
2023-03-21T08:21:12.284Z,7.30
2023-03-21T08:23:21.719Z,9.80
2023-03-21T08:25:30.844Z,10.67
2023-03-21T08:27:39.894Z,12.97
2023-03-21T08:29:50.966Z,8.47
2023-03-21T08:32:00.410Z,9.50
2023-03-21T08:34:09.669Z,11.53
2023-03-21T08:36:18.840Z,8.77
2023-03-21T08:38:30.284Z,11.63
2023-03-21T08:40:39.611Z,6.77
2023-03-21T08:42:49.285Z,7.00
2023-03-21T08:44:59.934Z,14.90
2023-03-21T08:47:08.889Z,5.90
2023-03-21T08:49:18.462Z,6.53
2023-03-21T08:51:27.496Z,7.53
2023-03-21T08:53:36.931Z,7.57
2023-03-21T08:55:46.495Z,9.30
2023-03-21T08:57:55.093Z,7.07
2023-03-21T09:00:11.300Z,7.77
2023-03-21T09:02:19.821Z,9.23
2023-03-21T09:04:28.523Z,7.57
2023-03-21T09:06:37.449Z,10.37
2023-03-21T09:08:46.709Z,9.50
2023-03-21T09:10:56.151Z,8.83
2023-03-21T09:13:05.052Z,7.33
2023-03-21T09:15:16.551Z,10.00
2023-03-21T09:17:25.737Z,9.50
2023-03-21T09:19:34.988Z,8.37
2023-03-21T09:21:44.200Z,6.70
2023-03-21T09:23:55.476Z,7.33
2023-03-21T09:26:05.074Z,6.83
2023-03-21T09:28:14.289Z,7.50
2023-03-21T09:30:26.493Z,8.10
2023-03-21T09:32:36.083Z,9.00
2023-03-21T09:34:44.811Z,9.07
2023-03-21T09:36:54.783Z,7.70
2023-03-21T09:39:04.887Z,11.87
2023-03-21T09:41:23.329Z,8.20
2023-03-21T09:43:38.571Z,9.83
2023-03-21T09:45:53.382Z,8.27
2023-03-21T09:48:02.913Z,8.90
2023-03-21T09:50:20.582Z,6.63
2023-03-21T09:52:34.900Z,10.07
2023-03-21T09:54:45.249Z,10.67
2023-03-21T09:56:56.679Z,10.33
2023-03-21T09:59:09.318Z,9.03
2023-03-21T10:01:28.526Z,8.20
2023-03-21T10:03:37.342Z,7.80
2023-03-21T10:05:47.435Z,9.10
2023-03-21T10:08:01.310Z,6.60
2023-03-21T10:10:18.299Z,6.87
2023-03-21T10:12:30.712Z,8.07
2023-03-21T10:14:42.029Z,6.00
2023-03-21T10:16:57.745Z,6.70
2023-03-21T10:19:13.066Z,7.87
2023-03-21T10:21:51.345Z,6.03
2023-03-21T10:23:54.912Z,4.83
2023-03-21T10:26:07.559Z,5.00
2023-03-21T10:28:19.937Z,5.40
2023-03-21T10:30:36.714Z,4.33
2023-03-21T10:32:47.394Z,3.93
2023-03-21T10:34:58.779Z,3.17
2023-03-21T10:37:08.441Z,4.70
2023-03-21T10:39:27.870Z,3.10
2023-03-21T10:41:36.967Z,4.43
2023-03-21T10:43:46.300Z,4.13
2023-03-21T10:45:55.903Z,3.07
2023-03-21T10:48:10.186Z,5.73
2023-03-21T10:50:25.901Z,4.13
2023-03-21T10:52:35.801Z,2.17
2023-03-21T10:54:45.062Z,1.87
2023-03-21T10:56:58.780Z,3.33
2023-03-21T10:59:10.404Z,2.77
2023-03-21T11:01:30.737Z,1.60
2023-03-21T11:03:47.386Z,1.60
2023-03-21T11:05:58.039Z,2.47
2023-03-21T11:08:12.373Z,2.63
2023-03-21T11:10:30.833Z,1.67
2023-03-21T11:12:41.561Z,2.97
2023-03-21T11:14:52.859Z,3.13
2023-03-21T11:17:01.488Z,1.90
2023-03-21T11:19:19.842Z,2.07
2023-03-21T11:21:29.776Z,0.77
2023-03-21T11:23:44.363Z,2.73
2023-03-21T11:25:53.386Z,1.17
2023-03-21T11:28:08.439Z,1.37
2023-03-21T11:30:23.880Z,1.53
2023-03-21T11:32:36.012Z,0.77
2023-03-21T11:34:50.821Z,1.23
2023-03-21T11:37:01.838Z,0.80
2023-03-21T11:39:31.990Z,3.27
2023-03-21T11:41:43.203Z,2.07
2023-03-21T11:43:54.962Z,0.70
2023-03-21T11:46:09.457Z,0.50
2023-03-21T11:48:18.280Z,0.70
2023-03-21T11:50:33.990Z,0.50
2023-03-21T11:52:49.646Z,1.60
2023-03-21T11:55:33.835Z,0.93
2023-03-21T11:57:47.395Z,0.57
2023-03-21T12:00:05.555Z,0.53
2023-03-21T12:02:48.676Z,3.60
2023-03-21T12:05:04.834Z,1.30
2023-03-21T12:07:43.385Z,0.97
2023-03-21T12:10:02.450Z,0.67
2023-03-21T12:12:38.483Z,4.00
2023-03-21T12:14:59.410Z,0.60
2023-03-21T12:17:23.582Z,1.80
2023-03-21T12:20:08.613Z,0.67
2023-03-21T12:22:30.391Z,1.90
2023-03-21T12:24:47.889Z,1.37
2023-03-21T12:27:06.306Z,3.27
2023-03-21T12:29:55.463Z,1.43
2023-03-21T12:32:14.624Z,1.00
2023-03-21T12:34:52.678Z,0.73
2023-03-21T12:37:14.526Z,1.27
2023-03-21T12:39:30.148Z,1.23
2023-03-21T12:41:45.058Z,0.60
2023-03-21T12:44:00.590Z,1.57
2023-03-21T12:46:17.550Z,2.13
2023-03-21T12:48:35.374Z,0.30
2023-03-21T12:50:46.333Z,0.57
2023-03-21T12:52:59.752Z,4.10
2023-03-21T12:55:16.624Z,0.83
2023-03-21T12:57:30.987Z,3.53
2023-03-21T12:59:50.602Z,1.80
2023-03-21T13:02:03.481Z,1.83
2023-03-21T13:04:32.174Z,2.07
2023-03-21T13:06:41.635Z,2.10
2023-03-21T13:08:54.365Z,2.30
2023-03-21T13:11:03.988Z,4.10
2023-03-21T13:13:21.127Z,1.03
2023-03-21T13:15:48.502Z,1.90
2023-03-21T13:18:03.809Z,0.50
2023-03-21T13:20:22.668Z,4.00
2023-03-21T13:22:32.607Z,1.97
2023-03-21T13:24:44.597Z,1.20
2023-03-21T13:27:01.160Z,0.57
2023-03-21T13:29:24.997Z,1.03
2023-03-21T13:31:50.911Z,0.60
2023-03-21T13:34:01.197Z,2.30
2023-03-21T13:36:10.604Z,2.30
2023-03-21T13:38:22.946Z,0.80
2023-03-21T13:40:42.941Z,0.80
2023-03-21T13:42:54.838Z,1.67
2023-03-21T13:45:06.980Z,0.70
2023-03-21T13:47:33.865Z,1.80
2023-03-21T13:49:42.424Z,2.00
2023-03-21T13:51:54.208Z,1.47
2023-03-21T13:54:04.452Z,2.00
2023-03-21T13:56:24.718Z,0.47
2023-03-21T13:58:36.320Z,1.43
2023-03-21T14:00:44.978Z,6.13
2023-03-21T14:03:01.166Z,1.73
2023-03-21T14:05:21.933Z,0.87
2023-03-21T14:07:32.271Z,0.40
2023-03-21T14:09:44.260Z,0.67
2023-03-21T14:11:56.597Z,3.50
2023-03-21T14:14:08.487Z,2.00
2023-03-21T14:16:18.613Z,0.43
2023-03-21T14:18:55.618Z,1.20
2023-03-21T14:21:02.199Z,0.93
2023-03-21T14:23:15.895Z,2.30
2023-03-21T14:25:31.462Z,0.50
2023-03-21T14:27:45.534Z,6.10
2023-03-21T14:29:54.952Z,2.17
2023-03-21T14:32:04.618Z,3.73
2023-03-21T14:34:17.185Z,1.17
2023-03-21T14:36:27.858Z,1.67
2023-03-21T14:38:38.638Z,1.23
2023-03-21T14:40:49.403Z,1.73
2023-03-21T14:42:59.755Z,2.63
2023-03-21T14:45:18.911Z,1.70
2023-03-21T14:47:32.246Z,2.30
2023-03-21T14:49:42.700Z,0.53
2023-03-21T14:51:54.809Z,0.60
2023-03-21T14:54:03.903Z,2.57
2023-03-21T14:56:19.318Z,3.13
2023-03-21T14:58:28.296Z,1.17
2023-03-21T15:00:37.485Z,0.97
2023-03-21T15:02:47.535Z,0.80
2023-03-21T15:05:00.256Z,1.23
2023-03-21T15:07:09.022Z,1.60
2023-03-21T15:09:18.260Z,1.80
2023-03-21T15:11:39.130Z,2.13
2023-03-21T15:13:54.871Z,0.70
2023-03-21T15:16:03.866Z,5.37
2023-03-21T15:18:19.066Z,1.37
2023-03-21T15:20:33.596Z,3.40
2023-03-21T15:22:47.084Z,9.43
2023-03-21T15:25:01.488Z,4.50
2023-03-21T15:27:16.237Z,7.77
2023-03-21T15:29:27.526Z,5.80
2023-03-21T15:31:38.512Z,2.10
2023-03-21T15:33:49.287Z,4.40
2023-03-21T15:36:02.810Z,1.10
2023-03-21T15:38:24.120Z,2.90
2023-03-21T15:40:35.101Z,3.67
2023-03-21T15:42:44.168Z,0.90
2023-03-21T15:44:55.207Z,2.40
2023-03-21T15:47:04.505Z,1.33
2023-03-21T15:49:23.002Z,3.27
2023-03-21T15:51:34.525Z,5.47
2023-03-21T15:53:45.368Z,0.73
2023-03-21T15:55:58.180Z,0.70
2023-03-21T15:58:13.212Z,4.73
2023-03-21T16:00:31.405Z,0.67
2023-03-21T16:02:43.880Z,1.10
2023-03-21T16:05:01.225Z,3.50
2023-03-21T16:07:18.518Z,1.47
2023-03-21T16:09:27.286Z,4.27
2023-03-21T16:11:41.416Z,10.27
2023-03-21T16:13:50.537Z,4.00
2023-03-21T16:15:59.249Z,8.10
2023-03-21T16:18:11.278Z,5.47
2023-03-21T16:20:23.087Z,1.93
2023-03-21T16:22:35.944Z,4.47
2023-03-21T16:24:44.297Z,2.23
2023-03-21T16:26:54.120Z,10.33
2023-03-21T16:29:04.099Z,1.63
2023-03-21T16:31:16.027Z,12.50
2023-03-21T16:33:25.617Z,7.87
2023-03-21T16:35:34.923Z,4.90
2023-03-21T16:37:47.216Z,12.83
2023-03-21T16:39:56.019Z,6.87
2023-03-21T16:42:04.815Z,5.07
2023-03-21T16:44:13.649Z,5.50
2023-03-21T16:46:23.752Z,0.93
2023-03-21T16:48:32.295Z,8.23
2023-03-21T16:50:43.705Z,9.13
2023-03-21T16:52:54.569Z,8.77
2023-03-21T16:55:03.640Z,2.83
2023-03-21T16:57:24.391Z,7.77
2023-03-21T16:59:33.209Z,5.10
2023-03-21T17:01:42.626Z,6.10
2023-03-21T17:03:51.625Z,13.00
2023-03-21T17:06:00.959Z,5.40
2023-03-21T17:08:17.100Z,12.83
2023-03-21T17:10:28.883Z,8.23
2023-03-21T17:12:37.582Z,11.30
2023-03-21T17:14:47.808Z,20.53
2023-03-21T17:16:57.260Z,14.80
2023-03-21T17:19:12.682Z,9.70
2023-03-21T17:21:23.050Z,9.67
2023-03-21T17:23:33.230Z,20.63
2023-03-21T17:25:42.030Z,9.20
2023-03-21T17:27:51.896Z,8.03
2023-03-21T17:30:00.844Z,5.53
2023-03-21T17:32:10.185Z,3.80
2023-03-21T17:34:19.364Z,2.73
2023-03-21T17:36:32.121Z,2.73
2023-03-21T17:38:43.093Z,2.13
2023-03-21T17:40:51.752Z,1.90
2023-03-21T17:43:01.827Z,1.53
2023-03-21T17:45:11.522Z,0.70
2023-03-21T17:47:19.861Z,1.77
2023-03-21T17:49:28.729Z,0.87
2023-03-21T17:51:37.590Z,1.27
2023-03-21T17:53:50.893Z,3.60
2023-03-21T17:55:59.942Z,4.47
2023-03-21T17:58:10.249Z,4.90
2023-03-21T18:00:22.741Z,2.80
2023-03-21T18:02:31.433Z,3.53
2023-03-21T18:04:40.114Z,2.67
2023-03-21T18:06:49.292Z,1.20
2023-03-21T18:09:00.468Z,4.93
2023-03-21T18:11:10.282Z,4.60
2023-03-21T18:13:18.795Z,1.47
2023-03-21T18:15:30.336Z,3.17
2023-03-21T18:17:39.473Z,2.00
2023-03-21T18:19:48.558Z,2.30
2023-03-21T18:21:57.893Z,2.27
2023-03-21T18:24:09.056Z,1.77
2023-03-21T18:26:23.833Z,2.83
2023-03-21T18:28:33.474Z,2.13
2023-03-21T18:31:00.726Z,3.43
2023-03-21T18:33:12.418Z,7.27
2023-03-21T18:35:22.195Z,1.90
2023-03-21T18:37:32.374Z,1.90
2023-03-21T18:39:44.593Z,2.03
2023-03-21T18:41:57.825Z,3.60
2023-03-21T18:44:14.826Z,5.30
2023-03-21T18:46:27.640Z,2.50
2023-03-21T18:48:36.628Z,2.80
2023-03-21T18:50:45.999Z,2.17
2023-03-21T18:52:54.824Z,2.60
2023-03-21T18:55:05.444Z,1.63
2023-03-21T18:57:35.164Z,1.90
2023-03-21T18:59:42.616Z,7.23
2023-03-21T19:01:51.602Z,1.97
2023-03-21T19:04:20.062Z,2.47
2023-03-21T19:06:29.820Z,1.90
2023-03-21T19:08:42.011Z,2.07
2023-03-21T19:10:53.024Z,2.10
2023-03-21T19:13:02.762Z,2.33
2023-03-21T19:15:12.430Z,2.53
2023-03-21T19:19:51.594Z,5.67
2023-03-21T19:22:00.817Z,4.10
2023-03-21T19:24:27.073Z,2.50
2023-03-21T19:26:38.511Z,3.17
2023-03-21T19:28:47.063Z,5.00
2023-03-21T19:30:55.833Z,2.10
2023-03-21T19:33:05.501Z,2.33
2023-03-21T19:35:15.232Z,2.03
2023-03-21T19:37:25.017Z,3.40
2023-03-21T19:39:34.127Z,3.17
2023-03-21T19:41:44.608Z,2.93
2023-03-21T19:43:55.392Z,1.87
2023-03-21T19:46:05.353Z,1.23
2023-03-21T19:48:13.848Z,1.10
2023-03-21T19:52:51.104Z,1.60
2023-03-21T19:54:59.797Z,2.00
2023-03-21T19:57:09.884Z,3.17
2023-03-21T19:59:19.948Z,2.00
2023-03-21T20:01:28.515Z,1.90
2023-03-21T20:03:37.582Z,1.23
2023-03-21T20:05:46.107Z,4.63
2023-03-21T20:07:57.491Z,2.77
2023-03-21T20:10:06.723Z,2.47
2023-03-21T20:12:17.180Z,1.20
2023-03-21T20:14:26.383Z,1.87
2023-03-21T20:16:36.976Z,1.93
2023-03-21T20:18:46.192Z,1.70
2023-03-21T20:20:55.220Z,1.57
2023-03-21T20:23:07.863Z,2.50
2023-03-21T20:25:16.816Z,1.40
2023-03-21T20:27:29.878Z,1.87
2023-03-21T20:32:10.088Z,2.47
2023-03-21T20:34:18.640Z,1.73
2023-03-21T20:36:43.897Z,2.23
2023-03-21T20:38:53.634Z,1.63
2023-03-21T20:41:04.417Z,2.40
2023-03-21T20:44:06.541Z,1.70
2023-03-21T20:45:44.207Z,4.20
2023-03-21T20:47:53.170Z,6.07
2023-03-21T20:50:04.253Z,4.10
2023-03-21T20:54:42.778Z,2.47
2023-03-21T20:56:57.675Z,1.57
2023-03-21T20:59:18.760Z,1.37
2023-03-21T21:01:32.788Z,1.33
2023-03-21T21:03:44.708Z,2.87
2023-03-21T21:05:53.982Z,1.43
2023-03-21T21:08:03.710Z,3.00
2023-03-21T21:10:14.724Z,3.17
2023-03-21T21:12:27.713Z,1.97
2023-03-21T21:14:38.316Z,2.33
2023-03-21T21:16:48.020Z,1.83
2023-03-21T21:18:56.685Z,2.77
2023-03-21T21:21:07.138Z,3.60
2023-03-21T21:23:15.769Z,3.50
2023-03-21T21:25:25.707Z,3.47
2023-03-21T21:27:34.932Z,3.87
2023-03-21T21:29:47.875Z,3.37
2023-03-21T21:31:56.675Z,3.20
2023-03-21T21:34:06.060Z,3.13
2023-03-21T21:36:15.828Z,2.93
2023-03-21T21:38:25.154Z,3.37
2023-03-21T21:40:33.893Z,2.70
2023-03-21T21:42:44.474Z,2.80
2023-03-21T21:44:55.256Z,3.53
2023-03-21T21:47:08.983Z,3.83
2023-03-21T21:49:17.531Z,4.37
2023-03-21T21:51:34.489Z,3.80
2023-03-21T21:53:43.315Z,4.13
2023-03-21T21:55:52.206Z,3.73
2023-03-21T21:58:01.323Z,4.30
2023-03-21T22:00:13.849Z,4.97
2023-03-21T22:02:25.538Z,4.10
2023-03-21T22:04:34.823Z,4.80
2023-03-21T22:06:44.891Z,6.50
2023-03-21T22:08:53.410Z,5.67
2023-03-21T22:11:02.712Z,6.57
2023-03-21T22:13:11.866Z,4.07
2023-03-21T22:15:24.413Z,5.13
2023-03-21T22:17:33.193Z,4.10
2023-03-21T22:19:42.585Z,4.90
2023-03-21T22:21:54.081Z,4.17
2023-03-21T22:24:03.041Z,5.73
2023-03-21T22:26:12.277Z,4.97
2023-03-21T22:28:22.280Z,5.43
2023-03-21T22:30:32.739Z,6.63
2023-03-21T22:32:42.353Z,4.23
2023-03-21T22:34:51.330Z,4.17
2023-03-21T22:37:00.137Z,6.40
2023-03-21T22:39:09.446Z,4.40
2023-03-21T22:41:17.900Z,3.73
2023-03-21T22:43:27.113Z,5.13
2023-03-21T22:45:37.647Z,3.50
2023-03-21T22:47:46.587Z,3.60
2023-03-21T22:49:55.084Z,4.40
2023-03-21T22:52:04.057Z,4.47
2023-03-21T22:54:13.133Z,4.40
2023-03-21T22:56:21.953Z,3.07
2023-03-21T22:58:30.656Z,3.60
2023-03-21T23:00:40.852Z,3.80
2023-03-21T23:02:49.909Z,3.67
2023-03-21T23:04:58.465Z,3.17
2023-03-21T23:07:07.589Z,3.23
2023-03-21T23:09:16.796Z,4.13
2023-03-21T23:11:25.162Z,3.73
2023-03-21T23:13:33.640Z,3.47
2023-03-21T23:15:44.442Z,3.73
2023-03-21T23:17:53.080Z,3.07
2023-03-21T23:20:01.925Z,3.87
2023-03-21T23:22:10.760Z,3.20
2023-03-21T23:24:19.675Z,3.10
2023-03-21T23:26:28.239Z,3.43
2023-03-21T23:28:37.544Z,5.03
2023-03-21T23:30:47.563Z,5.30
2023-03-21T23:32:57.422Z,3.70
2023-03-21T23:35:09.644Z,2.73
2023-03-21T23:37:18.367Z,4.07
2023-03-21T23:39:27.203Z,2.80
2023-03-21T23:41:36.403Z,2.73
2023-03-21T23:43:45.628Z,2.47
2023-03-21T23:45:56.393Z,3.17
2023-03-21T23:48:05.298Z,2.67
2023-03-21T23:50:14.017Z,3.63
2023-03-21T23:52:22.693Z,4.17
2023-03-21T23:54:31.162Z,3.63
2023-03-21T23:56:39.888Z,2.80
2023-03-21T23:58:49.929Z,2.87
